Time;durP1;ratioP1;P1;durP2;ratioP2;P2;SDS_P1;SDS_P2;PMS_P1;PMS_P2;Temp;Humidity;BMP_temperature;BMP_pressure;BME280_temperature;BME280_humidity;BME280_pressure;Samples;Min_cycle;Max_cycle;Signal;HPM_P1;HPM_P2
2021/09/29 00:01:10;;;;;;;3.40;2.43;;;;;;;;;;5040015;28;20477;-84
2021/09/29 00:03:38;;;;;;;6.80;2.90;;;;;;;;;;5042625;28;20469;-83
2021/09/29 00:06:05;;;;;;;4.67;2.63;;;;;;;;;;5032747;28;20507;-83
2021/09/29 00:08:34;;;;;;;9.60;3.30;;;;;;;;;;5030798;28;20461;-84
2021/09/29 00:11:01;;;;;;;5.50;3.20;;;;;;;;;;5033246;28;20466;-84
2021/09/29 00:13:29;;;;;;;4.57;3.10;;;;;;;;;;5030414;28;20481;-84
2021/09/29 00:15:56;;;;;;;7.50;3.50;;;;;;;;;;5025674;28;20450;-82
2021/09/29 00:18:24;;;;;;;8.00;2.83;;;;;;;;;;5035004;28;20446;-82
2021/09/29 00:20:51;;;;;;;3.00;2.47;;;;;;;;;;5030290;28;20494;-84
2021/09/29 00:23:18;;;;;;;5.17;2.60;;;;;;;;;;5032645;28;20450;-84
2021/09/29 00:25:47;;;;;;;4.00;2.70;;;;;;;;;;5033011;28;20450;-81
2021/09/29 00:28:14;;;;;;;7.97;3.37;;;;;;;;;;5029998;28;20448;-84
2021/09/29 00:30:50;;;;;;;6.83;3.00;;;;;;;;;;5013300;28;20482;-85
2021/09/29 00:33:18;;;;;;;5.60;3.20;;;;;;;;;;5026682;28;20523;-81
2021/09/29 00:35:45;;;;;;;4.60;2.90;;;;;;;;;;5032365;28;20466;-84
2021/09/29 00:38:12;;;;;;;5.13;2.70;;;;;;;;;;5020868;28;20456;-84
2021/09/29 00:40:41;;;;;;;4.97;2.90;;;;;;;;;;5035265;28;20485;-83
2021/09/29 00:43:09;;;;;;;9.93;3.20;;;;;;;;;;5031563;28;20533;-84
2021/09/29 00:45:37;;;;;;;6.73;3.47;;;;;;;;;;5023712;28;20461;-82
2021/09/29 00:48:04;;;;;;;4.10;2.67;;;;;;;;;;5031803;28;20481;-84
2021/09/29 00:50:32;;;;;;;8.20;2.97;;;;;;;;;;5030831;28;20469;-84
2021/09/29 00:52:59;;;;;;;4.47;3.40;;;;;;;;;;5024612;28;20466;-84
2021/09/29 00:55:27;;;;;;;5.60;3.40;;;;;;;;;;5029389;28;20434;-86
2021/09/29 00:57:54;;;;;;;5.10;2.57;;;;;;;;;;5028964;28;20458;-85
2021/09/29 01:00:23;;;;;;;4.77;2.87;;;;;;;;;;5031194;28;20573;-85
2021/09/29 01:02:50;;;;;;;6.73;2.83;;;;;;;;;;5023493;28;20483;-82
2021/09/29 01:05:17;;;;;;;5.63;3.03;;;;;;;;;;5023250;28;20453;-84
2021/09/29 01:07:48;;;;;;;8.87;3.27;;;;;;;;;;5037507;28;20800;-82
2021/09/29 01:10:17;;;;;;;5.87;3.23;;;;;;;;;;5032505;28;20479;-84
2021/09/29 01:12:48;;;;;;;7.53;3.60;;;;;;;;;;5001226;28;20450;-82
2021/09/29 01:15:17;;;;;;;5.20;3.00;;;;;;;;;;5031162;28;20492;-81
2021/09/29 01:17:51;;;;;;;6.10;3.57;;;;;;;;;;5026683;28;20473;-83
2021/09/29 01:20:21;;;;;;;5.77;3.57;;;;;;;;;;5026170;28;20492;-83
2021/09/29 01:22:56;;;;;;;7.60;3.43;;;;;;;;;;5028746;28;20462;-85
2021/09/29 01:25:26;;;;;;;6.20;2.97;;;;;;;;;;5003603;28;20454;-84
2021/09/29 01:27:54;;;;;;;3.67;3.07;;;;;;;;;;5022089;28;20454;-84
2021/09/29 01:30:21;;;;;;;5.03;2.83;;;;;;;;;;5030512;28;20489;-86
2021/09/29 01:32:49;;;;;;;5.03;3.10;;;;;;;;;;5027523;28;20466;-85
2021/09/29 01:35:17;;;;;;;6.63;3.83;;;;;;;;;;5032294;28;20465;-85
2021/09/29 01:37:44;;;;;;;5.67;3.33;;;;;;;;;;5033091;28;20476;-82
2021/09/29 01:40:12;;;;;;;6.57;3.60;;;;;;;;;;5033139;28;20857;-80
2021/09/29 01:42:40;;;;;;;7.10;3.37;;;;;;;;;;5014172;28;20456;-84
2021/09/29 01:45:09;;;;;;;5.53;3.50;;;;;;;;;;5021216;28;20450;-85
2021/09/29 01:47:37;;;;;;;5.53;3.40;;;;;;;;;;5021948;28;20458;-84
2021/09/29 01:50:05;;;;;;;9.80;4.20;;;;;;;;;;5031464;28;20490;-82
2021/09/29 01:52:35;;;;;;;4.37;3.57;;;;;;;;;;5025112;28;20985;-85
2021/09/29 01:55:02;;;;;;;5.87;3.57;;;;;;;;;;5029010;28;20457;-86
2021/09/29 01:57:30;;;;;;;7.10;3.20;;;;;;;;;;5052330;28;20807;-83
2021/09/29 01:59:57;;;;;;;5.73;3.20;;;;;;;;;;5051182;28;20491;-81
2021/09/29 02:05:30;;;;;;;5.03;3.13;;;;;;;;;;4990318;28;20470;-85
2021/09/29 02:07:57;;;;;;;6.47;4.03;;;;;;;;;;5039926;28;20449;-83
2021/09/29 02:10:26;;;;;;;4.60;3.30;;;;;;;;;;5033148;28;20483;-84
2021/09/29 02:12:53;;;;;;;6.30;3.43;;;;;;;;;;5034353;28;20796;-86
2021/09/29 02:15:22;;;;;;;5.90;3.50;;;;;;;;;;5025917;28;20546;-82
2021/09/29 02:17:49;;;;;;;4.20;2.90;;;;;;;;;;5015415;28;20457;-86
2021/09/29 02:20:16;;;;;;;5.73;4.13;;;;;;;;;;5032887;28;20829;-83
2021/09/29 02:22:44;;;;;;;5.43;2.80;;;;;;;;;;5032093;28;20466;-82
2021/09/29 02:25:13;;;;;;;3.93;3.20;;;;;;;;;;5037830;28;20449;-84
2021/09/29 02:27:40;;;;;;;5.57;3.40;;;;;;;;;;5018072;28;20452;-84
2021/09/29 02:30:09;;;;;;;6.10;3.73;;;;;;;;;;5032681;28;20457;-84
2021/09/29 02:32:36;;;;;;;4.43;3.70;;;;;;;;;;5037523;28;20457;-85
2021/09/29 02:35:04;;;;;;;5.83;3.10;;;;;;;;;;5035109;28;20446;-83
2021/09/29 02:37:31;;;;;;;4.43;3.00;;;;;;;;;;5033121;28;20450;-84
2021/09/29 02:40:00;;;;;;;8.30;3.10;;;;;;;;;;5037137;28;20476;-83
2021/09/29 02:42:27;;;;;;;4.53;2.73;;;;;;;;;;5053437;28;20442;-82
2021/09/29 02:44:54;;;;;;;5.00;3.60;;;;;;;;;;5034318;28;20443;-82
2021/09/29 02:47:21;;;;;;;3.83;3.17;;;;;;;;;;5014565;28;20451;-85
2021/09/29 02:49:48;;;;;;;5.50;3.50;;;;;;;;;;5016756;28;20477;-84
2021/09/29 02:52:15;;;;;;;5.90;3.17;;;;;;;;;;5030257;28;20468;-83
2021/09/29 02:54:43;;;;;;;4.10;3.10;;;;;;;;;;5041848;28;20449;-81
2021/09/29 02:57:11;;;;;;;4.80;3.70;;;;;;;;;;5029447;28;20463;-82
2021/09/29 02:59:38;;;;;;;4.80;3.20;;;;;;;;;;5025448;28;20486;-80
2021/09/29 03:02:05;;;;;;;5.43;3.70;;;;;;;;;;5031890;28;20512;-81
2021/09/29 03:04:34;;;;;;;4.27;3.47;;;;;;;;;;5034419;28;21041;-82
2021/09/29 03:07:01;;;;;;;4.87;3.13;;;;;;;;;;5034159;28;20549;-84
2021/09/29 03:09:28;;;;;;;5.40;3.27;;;;;;;;;;5034035;28;20485;-84
2021/09/29 03:11:55;;;;;;;7.23;3.50;;;;;;;;;;5035982;28;20453;-82
2021/09/29 03:14:23;;;;;;;4.43;3.30;;;;;;;;;;5029260;28;20477;-83
2021/09/29 03:16:51;;;;;;;4.23;2.83;;;;;;;;;;5040250;28;20450;-82
2021/09/29 03:19:19;;;;;;;4.97;3.20;;;;;;;;;;5047028;28;20461;-84
2021/09/29 03:21:46;;;;;;;6.87;3.37;;;;;;;;;;5017863;28;20826;-83
2021/09/29 03:24:18;;;;;;;4.00;2.90;;;;;;;;;;5017757;28;20490;-82
2021/09/29 03:26:46;;;;;;;3.73;3.30;;;;;;;;;;5027867;28;20798;-83
2021/09/29 03:29:13;;;;;;;6.97;3.50;;;;;;;;;;5032226;28;20489;-85
2021/09/29 03:31:41;;;;;;;3.87;3.47;;;;;;;;;;5035184;28;20450;-85
2021/09/29 03:34:08;;;;;;;5.27;3.10;;;;;;;;;;5035782;28;20807;-84
2021/09/29 03:36:35;;;;;;;5.77;3.40;;;;;;;;;;5024781;28;20462;-85
2021/09/29 03:39:03;;;;;;;4.00;2.90;;;;;;;;;;5038892;28;20469;-82
2021/09/29 03:41:30;;;;;;;7.80;2.90;;;;;;;;;;5050230;28;20487;-83
2021/09/29 03:43:57;;;;;;;3.80;3.40;;;;;;;;;;5031386;28;20466;-84
2021/09/29 03:46:24;;;;;;;7.20;3.47;;;;;;;;;;5021840;28;20451;-85
2021/09/29 03:48:53;;;;;;;4.77;3.60;;;;;;;;;;5023575;28;20446;-86
2021/09/29 03:51:20;;;;;;;8.23;3.00;;;;;;;;;;5035129;28;20452;-82
2021/09/29 03:53:47;;;;;;;4.33;3.10;;;;;;;;;;5040665;28;20441;-84
2021/09/29 03:56:14;;;;;;;6.30;3.53;;;;;;;;;;5035388;28;20468;-82
2021/09/29 03:58:42;;;;;;;6.77;3.87;;;;;;;;;;5033128;28;20800;-84
2021/09/29 04:01:09;;;;;;;6.80;4.20;;;;;;;;;;5007449;28;20486;-81
2021/09/29 04:03:37;;;;;;;5.67;3.87;;;;;;;;;;5024728;28;20477;-83
2021/09/29 04:06:08;;;;;;;6.77;3.80;;;;;;;;;;5034614;28;20954;-84
2021/09/29 04:08:35;;;;;;;7.17;3.80;;;;;;;;;;5032159;28;20815;-85
2021/09/29 04:11:03;;;;;;;5.83;3.57;;;;;;;;;;5034096;28;20469;-83
2021/09/29 04:13:31;;;;;;;8.73;3.57;;;;;;;;;;5032868;28;20442;-84
2021/09/29 04:15:59;;;;;;;4.20;3.53;;;;;;;;;;5031110;28;20462;-84
2021/09/29 04:18:27;;;;;;;7.53;4.10;;;;;;;;;;5010561;28;20911;-82
2021/09/29 04:20:54;;;;;;;5.43;4.20;;;;;;;;;;5027650;28;20854;-84
2021/09/29 04:23:22;;;;;;;5.57;4.27;;;;;;;;;;5038867;28;20864;-83
2021/09/29 04:25:52;;;;;;;8.43;4.13;;;;;;;;;;5031364;28;20804;-83
2021/09/29 04:28:19;;;;;;;5.00;3.73;;;;;;;;;;5026241;28;20528;-85
2021/09/29 04:30:46;;;;;;;5.73;3.80;;;;;;;;;;5023474;28;20482;-85
2021/09/29 04:33:13;;;;;;;8.50;4.10;;;;;;;;;;5025800;28;20821;-85
2021/09/29 04:35:40;;;;;;;4.97;4.00;;;;;;;;;;5032527;28;20438;-85
2021/09/29 04:38:08;;;;;;;6.33;3.93;;;;;;;;;;5029434;28;20461;-84
2021/09/29 04:40:36;;;;;;;5.70;3.70;;;;;;;;;;5040867;28;20968;-83
2021/09/29 04:43:04;;;;;;;7.30;3.80;;;;;;;;;;5051787;28;20460;-82
2021/09/29 04:45:31;;;;;;;8.63;4.00;;;;;;;;;;5019221;28;20541;-84
2021/09/29 04:47:58;;;;;;;7.30;4.27;;;;;;;;;;5015915;28;20455;-84
2021/09/29 04:50:25;;;;;;;4.20;3.80;;;;;;;;;;5012751;28;20463;-85
2021/09/29 04:52:52;;;;;;;6.33;3.93;;;;;;;;;;5029993;28;20574;-82
2021/09/29 04:55:20;;;;;;;6.50;4.03;;;;;;;;;;5027255;28;20457;-83
2021/09/29 04:57:48;;;;;;;4.90;3.63;;;;;;;;;;5031798;28;20549;-83
2021/09/29 05:00:16;;;;;;;5.07;3.60;;;;;;;;;;5029181;28;20492;-85
2021/09/29 05:02:45;;;;;;;4.23;3.53;;;;;;;;;;5015133;28;20529;-84
2021/09/29 05:05:12;;;;;;;6.00;3.93;;;;;;;;;;5002650;28;20525;-83
2021/09/29 05:07:41;;;;;;;4.60;3.67;;;;;;;;;;5011529;28;20466;-84
2021/09/29 05:10:11;;;;;;;5.80;3.97;;;;;;;;;;5006841;28;20482;-85
2021/09/29 05:12:38;;;;;;;6.10;4.23;;;;;;;;;;4990880;28;20459;-84
2021/09/29 05:15:07;;;;;;;9.20;4.73;;;;;;;;;;5012623;28;20445;-81
2021/09/29 05:17:35;;;;;;;4.93;3.90;;;;;;;;;;5020483;28;20482;-83
2021/09/29 05:20:02;;;;;;;6.50;4.07;;;;;;;;;;5004625;28;20479;-84
2021/09/29 05:22:29;;;;;;;4.30;3.73;;;;;;;;;;5007660;28;20474;-82
2021/09/29 05:24:56;;;;;;;4.17;3.67;;;;;;;;;;5019005;28;20897;-84
2021/09/29 05:27:23;;;;;;;7.27;4.90;;;;;;;;;;5013154;28;20456;-82
2021/09/29 05:29:51;;;;;;;5.83;4.10;;;;;;;;;;5005952;28;20838;-85
2021/09/29 05:32:20;;;;;;;5.07;3.93;;;;;;;;;;5008334;28;20454;-84
2021/09/29 05:34:47;;;;;;;6.83;4.23;;;;;;;;;;5009550;28;20458;-82
2021/09/29 05:37:14;;;;;;;5.50;3.87;;;;;;;;;;5000925;28;20976;-78
2021/09/29 05:39:41;;;;;;;6.57;3.90;;;;;;;;;;5011490;28;20465;-79
2021/09/29 05:42:08;;;;;;;5.80;3.70;;;;;;;;;;5015705;28;20474;-81
2021/09/29 05:44:37;;;;;;;4.93;3.80;;;;;;;;;;5004395;28;20473;-79
2021/09/29 05:47:05;;;;;;;4.90;3.70;;;;;;;;;;5009031;28;20466;-79
2021/09/29 05:49:34;;;;;;;4.00;3.30;;;;;;;;;;5011015;28;20455;-77
2021/09/29 05:52:01;;;;;;;6.90;3.50;;;;;;;;;;5003316;28;20545;-78
2021/09/29 05:54:29;;;;;;;7.97;4.20;;;;;;;;;;4998572;28;20481;-79
2021/09/29 05:56:56;;;;;;;6.57;3.80;;;;;;;;;;5013332;28;20465;-79
2021/09/29 05:59:41;;;;;;;3.50;3.20;;;;;;;;;;5011717;28;20459;-78
2021/09/29 06:02:08;;;;;;;8.27;3.70;;;;;;;;;;5002129;28;20489;-77
2021/09/29 06:04:38;;;;;;;6.10;3.70;;;;;;;;;;5012056;28;20454;-79
2021/09/29 06:07:07;;;;;;;5.03;3.80;;;;;;;;;;5004155;28;20475;-79
2021/09/29 06:09:37;;;;;;;3.57;3.23;;;;;;;;;;5005399;28;20471;-81
2021/09/29 06:12:04;;;;;;;4.30;3.40;;;;;;;;;;5015899;28;20802;-83
2021/09/29 06:14:31;;;;;;;6.83;3.87;;;;;;;;;;5006120;28;20466;-84
2021/09/29 06:17:11;;;;;;;3.80;3.17;;;;;;;;;;5012586;28;20463;-84
2021/09/29 06:19:39;;;;;;;4.37;3.30;;;;;;;;;;5012910;28;20474;-79
2021/09/29 06:22:07;;;;;;;4.63;3.23;;;;;;;;;;5011127;28;20471;-78
2021/09/29 06:24:34;;;;;;;4.90;3.77;;;;;;;;;;4995960;28;20456;-80
2021/09/29 06:27:01;;;;;;;9.93;3.43;;;;;;;;;;5010272;28;20788;-81
2021/09/29 06:29:28;;;;;;;4.37;3.60;;;;;;;;;;5008813;28;21031;-80
2021/09/29 06:31:56;;;;;;;6.73;3.30;;;;;;;;;;4998643;28;20462;-74
2021/09/29 06:34:24;;;;;;;7.67;3.43;;;;;;;;;;5003513;28;20495;-78
2021/09/29 06:36:52;;;;;;;4.23;3.73;;;;;;;;;;5005956;28;20544;-76
2021/09/29 06:39:20;;;;;;;7.33;3.63;;;;;;;;;;4997983;28;20786;-80
2021/09/29 06:41:47;;;;;;;8.17;3.33;;;;;;;;;;5013700;28;20473;-77
2021/09/29 06:44:14;;;;;;;4.93;3.67;;;;;;;;;;5013973;28;20501;-75
2021/09/29 06:46:42;;;;;;;6.30;3.40;;;;;;;;;;5014300;28;20952;-78
2021/09/29 06:49:09;;;;;;;4.60;3.60;;;;;;;;;;4998120;28;20459;-78
2021/09/29 06:51:36;;;;;;;6.83;3.90;;;;;;;;;;5007785;28;20453;-79
2021/09/29 06:54:05;;;;;;;6.67;4.43;;;;;;;;;;5012207;28;20925;-80
2021/09/29 06:56:32;;;;;;;6.83;4.13;;;;;;;;;;4995669;28;20454;-78
2021/09/29 06:58:59;;;;;;;5.33;4.63;;;;;;;;;;5017510;28;20471;-77
2021/09/29 07:01:26;;;;;;;6.77;4.30;;;;;;;;;;5009871;28;20482;-76
2021/09/29 07:03:54;;;;;;;5.07;4.17;;;;;;;;;;5003552;28;20481;-78
2021/09/29 07:06:21;;;;;;;4.20;3.67;;;;;;;;;;5012550;28;20957;-78
2021/09/29 07:08:48;;;;;;;7.97;3.60;;;;;;;;;;5007189;28;20987;-78
2021/09/29 07:11:17;;;;;;;5.73;3.37;;;;;;;;;;5008656;28;20461;-76
2021/09/29 07:13:45;;;;;;;6.43;3.57;;;;;;;;;;5021376;28;20494;-77
2021/09/29 07:16:12;;;;;;;5.53;3.90;;;;;;;;;;5011169;28;20487;-76
2021/09/29 07:18:41;;;;;;;4.80;3.20;;;;;;;;;;4995870;28;20474;-78
2021/09/29 07:21:08;;;;;;;4.27;3.50;;;;;;;;;;4994083;28;21076;-77
2021/09/29 07:23:37;;;;;;;7.50;3.63;;;;;;;;;;5000333;28;20496;-79
2021/09/29 07:26:04;;;;;;;5.93;3.93;;;;;;;;;;5009531;28;20490;-77
2021/09/29 07:28:32;;;;;;;4.17;3.57;;;;;;;;;;5021590;28;20426;-77
2021/09/29 07:30:59;;;;;;;7.17;4.13;;;;;;;;;;5012737;28;20831;-76
2021/09/29 07:33:27;;;;;;;5.30;4.20;;;;;;;;;;5008376;28;20450;-79
2021/09/29 07:35:55;;;;;;;4.30;3.53;;;;;;;;;;5011816;28;20454;-78
2021/09/29 07:38:23;;;;;;;4.13;3.50;;;;;;;;;;5002828;28;20468;-78
2021/09/29 07:40:53;;;;;;;6.17;3.87;;;;;;;;;;4995880;28;20478;-79
2021/09/29 07:43:23;;;;;;;7.20;4.13;;;;;;;;;;5009259;28;21092;-78
2021/09/29 07:45:51;;;;;;;8.07;4.60;;;;;;;;;;5022688;28;20828;-79
2021/09/29 07:48:18;;;;;;;8.10;4.80;;;;;;;;;;5009932;28;20934;-76
2021/09/29 07:50:46;;;;;;;5.67;4.37;;;;;;;;;;5030316;28;20826;-78
2021/09/29 07:53:15;;;;;;;8.10;4.67;;;;;;;;;;5031767;28;20439;-79
2021/09/29 07:55:42;;;;;;;6.10;4.50;;;;;;;;;;5003683;28;20491;-79
2021/09/29 07:58:09;;;;;;;6.30;4.40;;;;;;;;;;5012007;28;20500;-78
2021/09/29 08:00:37;;;;;;;8.67;4.73;;;;;;;;;;5015232;28;20467;-77
2021/09/29 08:03:05;;;;;;;9.90;4.90;;;;;;;;;;5007996;28;20484;-78
2021/09/29 08:05:32;;;;;;;6.47;4.53;;;;;;;;;;5008984;28;20474;-77
2021/09/29 08:08:00;;;;;;;5.77;3.80;;;;;;;;;;4993564;28;20438;-77
2021/09/29 08:10:27;;;;;;;5.23;4.20;;;;;;;;;;5001215;28;20475;-78
2021/09/29 08:12:55;;;;;;;6.17;4.03;;;;;;;;;;5020093;28;20801;-79
2021/09/29 08:15:23;;;;;;;4.47;4.03;;;;;;;;;;4990910;28;20531;-78
2021/09/29 08:17:54;;;;;;;5.67;4.03;;;;;;;;;;4981786;28;20456;-80
2021/09/29 08:20:26;;;;;;;5.87;4.20;;;;;;;;;;4985767;28;20566;-77
2021/09/29 08:22:58;;;;;;;6.73;4.20;;;;;;;;;;4994320;28;20484;-77
2021/09/29 08:25:44;;;;;;;6.97;4.20;;;;;;;;;;5006965;28;20546;-77
2021/09/29 08:28:19;;;;;;;6.50;4.53;;;;;;;;;;5018477;28;20465;-75
2021/09/29 08:30:57;;;;;;;5.97;4.40;;;;;;;;;;4991911;28;21049;-78
2021/09/29 08:33:43;;;;;;;6.30;4.10;;;;;;;;;;4995319;28;20454;-79
2021/09/29 08:36:20;;;;;;;6.23;4.27;;;;;;;;;;5005430;28;20549;-78
2021/09/29 08:38:51;;;;;;;7.37;4.90;;;;;;;;;;5011098;28;20451;-78
2021/09/29 08:41:27;;;;;;;7.60;5.07;;;;;;;;;;5012777;28;20455;-80
2021/09/29 08:43:59;;;;;;;6.80;4.10;;;;;;;;;;5004836;28;20576;-80
2021/09/29 08:46:30;;;;;;;6.40;4.60;;;;;;;;;;5016726;28;21357;-76
2021/09/29 08:49:03;;;;;;;5.00;4.43;;;;;;;;;;5012350;28;20965;-78
2021/09/29 08:54:23;;;;;;;8.53;4.63;;;;;;;;;;4995290;28;20441;-76
2021/09/29 09:15:51;;;;;;;5.83;3.57;;;;;;;;;;5018545;28;20427;-78
2021/09/29 09:18:19;;;;;;;5.00;3.70;;;;;;;;;;5010712;28;20454;-77
2021/09/29 09:20:50;;;;;;;6.00;3.17;;;;;;;;;;5028259;28;20462;-79
2021/09/29 09:23:21;;;;;;;3.37;3.00;;;;;;;;;;5016828;28;21044;-77
2021/09/29 09:25:48;;;;;;;7.90;3.90;;;;;;;;;;5007944;28;20454;-78
2021/09/29 09:28:25;;;;;;;4.57;3.57;;;;;;;;;;4994688;28;20451;-77
2021/09/29 09:30:52;;;;;;;3.00;2.70;;;;;;;;;;5011337;28;20845;-78
2021/09/29 09:33:23;;;;;;;5.17;3.33;;;;;;;;;;5011662;28;20462;-77
2021/09/29 09:35:51;;;;;;;3.97;3.57;;;;;;;;;;5012119;28;20546;-77
2021/09/29 09:38:22;;;;;;;4.43;3.50;;;;;;;;;;5008126;28;20789;-78
2021/09/29 09:40:57;;;;;;;5.10;3.37;;;;;;;;;;4985197;28;20478;-79
2021/09/29 09:43:25;;;;;;;4.47;3.60;;;;;;;;;;4998688;28;20490;-82
2021/09/29 09:45:53;;;;;;;4.70;2.33;;;;;;;;;;4999703;28;20455;-77
2021/09/29 09:48:23;;;;;;;3.70;2.00;;;;;;;;;;5009536;28;20459;-78
2021/09/29 09:50:53;;;;;;;3.90;1.57;;;;;;;;;;5011773;28;20839;-77
2021/09/29 09:53:21;;;;;;;3.80;1.73;;;;;;;;;;5011155;28;20457;-78
2021/09/29 09:55:50;;;;;;;3.67;1.60;;;;;;;;;;5012721;28;20453;-78
2021/09/29 09:58:18;;;;;;;6.97;1.73;;;;;;;;;;5011353;28;20462;-78
2021/09/29 10:00:45;;;;;;;3.00;1.50;;;;;;;;;;5018765;28;20462;-81
2021/09/29 10:03:14;;;;;;;2.10;1.43;;;;;;;;;;5012087;28;20486;-77
2021/09/29 10:05:43;;;;;;;3.87;1.57;;;;;;;;;;4988972;28;20852;-77
2021/09/29 10:08:14;;;;;;;2.00;1.50;;;;;;;;;;5011076;28;20528;-76
2021/09/29 10:10:55;;;;;;;2.27;1.40;;;;;;;;;;4992955;28;20528;-76
2021/09/29 10:13:51;;;;;;;2.10;1.80;;;;;;;;;;5011180;28;20465;-77
2021/09/29 10:27:12;;;;;;;2.53;2.00;;;;;;;;;;4997479;28;20486;-77
2021/09/29 10:29:41;;;;;;;4.23;1.90;;;;;;;;;;5000265;28;22550;-78
2021/09/29 10:32:15;;;;;;;3.43;1.67;;;;;;;;;;4991298;28;21463;-78
2021/09/29 10:34:55;;;;;;;1.97;1.37;;;;;;;;;;5007965;28;20452;-76
2021/09/29 10:37:38;;;;;;;2.60;1.50;;;;;;;;;;5016934;28;20461;-77
2021/09/29 10:42:58;;;;;;;4.40;1.43;;;;;;;;;;4998623;28;20840;-77
2021/09/29 10:45:33;;;;;;;2.30;1.20;;;;;;;;;;5008735;28;20531;-78
2021/09/29 10:48:17;;;;;;;2.30;1.27;;;;;;;;;;4995944;28;20469;-77
2021/09/29 10:51:08;;;;;;;1.67;1.40;;;;;;;;;;5005917;28;20904;-78
2021/09/29 11:05:05;;;;;;;2.30;1.20;;;;;;;;;;4998495;28;20514;-76
2021/09/29 11:07:53;;;;;;;1.80;1.57;;;;;;;;;;5013177;28;20477;-78
2021/09/29 11:29:39;;;;;;;0.90;0.77;;;;;;;;;;4981534;28;20478;-77
2021/09/29 11:32:16;;;;;;;1.07;0.80;;;;;;;;;;5010804;28;20454;-78
2021/09/29 11:34:45;;;;;;;1.80;1.23;;;;;;;;;;5019134;28;20451;-77
2021/09/29 11:37:30;;;;;;;1.00;0.90;;;;;;;;;;5013866;28;20897;-78
2021/09/29 11:48:28;;;;;;;1.17;1.00;;;;;;;;;;4985290;28;21172;-78
2021/09/29 12:10:08;;;;;;;5.90;2.40;;;;;;;;;;5002553;28;20474;-78
2021/09/29 12:12:37;;;;;;;2.93;1.60;;;;;;;;;;5006871;28;20474;-78
2021/09/29 12:15:06;;;;;;;2.23;1.57;;;;;;;;;;5002181;28;20819;-76
2021/09/29 12:17:35;;;;;;;1.90;1.53;;;;;;;;;;4998425;28;20813;-78
2021/09/29 12:20:11;;;;;;;2.20;1.50;;;;;;;;;;5004704;28;20515;-78
2021/09/29 12:22:42;;;;;;;3.07;1.10;;;;;;;;;;4982692;28;20458;-78
2021/09/29 12:25:13;;;;;;;1.40;1.30;;;;;;;;;;5009423;28;20513;-78
2021/09/29 12:28:17;;;;;;;1.40;0.90;;;;;;;;;;4967560;28;20433;-79
2021/09/29 12:30:48;;;;;;;1.53;1.10;;;;;;;;;;4978725;28;20483;-80
2021/09/29 12:33:20;;;;;;;3.13;1.13;;;;;;;;;;4993512;28;20450;-77
2021/09/29 12:35:48;;;;;;;1.03;0.90;;;;;;;;;;4976346;28;20541;-77
2021/09/29 12:38:16;;;;;;;2.10;0.80;;;;;;;;;;4957387;28;20444;-78
2021/09/29 12:40:45;;;;;;;1.70;1.10;;;;;;;;;;4970791;28;20482;-77
2021/09/29 12:43:13;;;;;;;2.40;1.43;;;;;;;;;;4971227;28;21055;-78
2021/09/29 12:45:41;;;;;;;1.30;1.00;;;;;;;;;;4990872;28;20460;-78
2021/09/29 12:48:10;;;;;;;3.53;1.47;;;;;;;;;;4995176;28;20465;-79
2021/09/29 12:50:42;;;;;;;1.27;1.17;;;;;;;;;;5011767;28;20489;-77
2021/09/29 12:53:19;;;;;;;6.00;1.40;;;;;;;;;;4979592;28;20461;-80
2021/09/29 12:55:51;;;;;;;1.27;1.17;;;;;;;;;;5010775;28;20467;-78
2021/09/29 12:58:22;;;;;;;2.43;1.33;;;;;;;;;;5012579;28;20960;-80
2021/09/29 13:00:49;;;;;;;2.77;1.60;;;;;;;;;;5002222;28;20590;-77
2021/09/29 13:03:17;;;;;;;2.60;1.37;;;;;;;;;;5010035;28;20482;-77
2021/09/29 13:05:47;;;;;;;5.00;1.50;;;;;;;;;;5005979;28;20469;-81
2021/09/29 13:08:15;;;;;;;2.50;1.77;;;;;;;;;;4996362;28;20454;-80
2021/09/29 13:10:42;;;;;;;3.80;1.90;;;;;;;;;;4998192;28;20537;-75
2021/09/29 13:13:12;;;;;;;3.80;1.80;;;;;;;;;;5008919;28;20458;-79
2021/09/29 13:15:41;;;;;;;2.30;2.10;;;;;;;;;;4991137;28;20470;-78
2021/09/29 13:18:11;;;;;;;3.23;2.57;;;;;;;;;;4999824;28;20451;-78
2021/09/29 13:20:39;;;;;;;2.20;1.93;;;;;;;;;;5017460;28;20472;-79
2021/09/29 13:23:11;;;;;;;2.87;2.20;;;;;;;;;;5005915;28;20480;-78
2021/09/29 13:25:58;;;;;;;1.53;1.40;;;;;;;;;;4989815;28;20484;-77
2021/09/29 13:36:36;;;;;;;2.23;1.30;;;;;;;;;;5009728;28;20507;-77
2021/09/29 13:39:03;;;;;;;4.50;2.63;;;;;;;;;;5001613;28;20515;-77
2021/09/29 13:41:30;;;;;;;3.43;1.30;;;;;;;;;;5010382;28;20440;-77
2021/09/29 13:43:59;;;;;;;2.57;1.50;;;;;;;;;;5009600;28;20481;-77
2021/09/29 13:46:26;;;;;;;1.70;1.27;;;;;;;;;;5008848;28;20465;-79
2021/09/29 13:48:56;;;;;;;3.77;1.20;;;;;;;;;;5008012;28;20457;-77
2021/09/29 13:51:25;;;;;;;3.40;1.47;;;;;;;;;;5001625;28;20457;-77
2021/09/29 13:53:53;;;;;;;1.87;1.10;;;;;;;;;;5003532;28;20472;-78
2021/09/29 13:56:23;;;;;;;2.60;1.40;;;;;;;;;;5010577;28;20466;-79
2021/09/29 13:58:59;;;;;;;5.93;1.40;;;;;;;;;;4991192;28;20503;-77
2021/09/29 14:01:48;;;;;;;2.67;1.10;;;;;;;;;;5011862;28;20491;-77
2021/09/29 14:15:25;;;;;;;3.00;1.40;;;;;;;;;;5001492;28;20466;-77
2021/09/29 14:28:45;;;;;;;2.20;1.40;;;;;;;;;;4996729;28;20928;-77
2021/09/29 14:31:44;;;;;;;4.50;1.40;;;;;;;;;;5054712;23;20502;-77
2021/09/29 14:34:28;;;;;;;2.50;1.40;;;;;;;;;;4969050;28;20557;-78
2021/09/29 14:36:57;;;;;;;4.73;1.50;;;;;;;;;;5032677;28;20512;-76
2021/09/29 14:39:25;;;;;;;1.93;1.37;;;;;;;;;;5022942;28;20580;-77
2021/09/29 14:41:52;;;;;;;6.80;1.80;;;;;;;;;;5032503;28;20495;-76
2021/09/29 14:44:25;;;;;;;3.43;1.70;;;;;;;;;;5025104;28;20526;-79
2021/09/29 14:46:53;;;;;;;3.23;1.30;;;;;;;;;;5018440;28;20838;-87
2021/09/29 14:49:28;;;;;;;2.70;1.27;;;;;;;;;;5011969;28;21157;-78
2021/09/29 14:51:59;;;;;;;2.40;1.40;;;;;;;;;;5030945;28;20538;-77
2021/09/29 14:54:27;;;;;;;1.97;1.50;;;;;;;;;;5034670;28;20484;-78
2021/09/29 14:57:03;;;;;;;2.17;1.40;;;;;;;;;;4998844;28;21004;-78
2021/09/29 14:59:30;;;;;;;2.60;1.60;;;;;;;;;;5024684;28;20494;-79
2021/09/29 15:02:03;;;;;;;4.20;1.30;;;;;;;;;;5014081;28;20457;-78
2021/09/29 15:04:30;;;;;;;1.50;1.20;;;;;;;;;;5019939;28;20481;-77
2021/09/29 15:06:59;;;;;;;3.27;1.53;;;;;;;;;;5031038;28;20475;-78
2021/09/29 15:09:26;;;;;;;1.47;1.30;;;;;;;;;;5028129;28;21052;-78
2021/09/29 15:11:53;;;;;;;2.87;1.60;;;;;;;;;;5031495;28;20947;-79
2021/09/29 15:14:27;;;;;;;3.67;1.50;;;;;;;;;;5046375;28;20829;-79
2021/09/29 15:16:57;;;;;;;2.33;1.20;;;;;;;;;;5034903;28;20460;-77
2021/09/29 15:19:32;;;;;;;2.23;1.50;;;;;;;;;;5033954;28;20458;-79
2021/09/29 15:22:11;;;;;;;3.77;1.57;;;;;;;;;;5021783;28;20512;-82
2021/09/29 15:24:46;;;;;;;2.70;1.50;;;;;;;;;;5016325;28;20485;-85
2021/09/29 15:30:05;;;;;;;2.20;1.33;;;;;;;;;;5040609;28;20472;-83
2021/09/29 15:48:42;;;;;;;1.80;1.20;;;;;;;;;;5014538;28;20437;-78
2021/09/29 15:51:11;;;;;;;3.23;1.40;;;;;;;;;;5030931;28;20469;-80
2021/09/29 15:54:06;;;;;;;2.30;1.00;;;;;;;;;;5018966;28;20458;-77
2021/09/29 15:56:43;;;;;;;2.17;1.37;;;;;;;;;;5016726;28;20447;-80
2021/09/29 15:59:27;;;;;;;2.70;1.43;;;;;;;;;;5033951;28;20472;-78
2021/09/29 16:01:55;;;;;;;1.53;1.30;;;;;;;;;;5017411;28;20533;-78
2021/09/29 16:04:29;;;;;;;1.90;1.40;;;;;;;;;;5013629;28;20513;-78
2021/09/29 16:07:01;;;;;;;2.97;1.40;;;;;;;;;;5016027;28;21199;-78
2021/09/29 16:10:04;;;;;;;3.97;1.40;;;;;;;;;;5020727;28;20869;-77
2021/09/29 16:12:55;;;;;;;4.53;1.67;;;;;;;;;;5029392;28;20942;-78
2021/09/29 16:15:45;;;;;;;2.57;1.40;;;;;;;;;;5020096;28;20820;-78
2021/09/29 16:18:22;;;;;;;1.73;1.30;;;;;;;;;;5011999;28;20457;-78
2021/09/29 16:31:36;;;;;;;3.50;1.87;;;;;;;;;;5017954;28;20477;-83
2021/09/29 16:34:15;;;;;;;7.53;3.20;;;;;;;;;;5013867;28;20454;-82
2021/09/29 16:36:43;;;;;;;5.13;2.57;;;;;;;;;;5029285;28;20454;-83
2021/09/29 16:39:10;;;;;;;6.57;3.03;;;;;;;;;;5022926;28;20486;-82
2021/09/29 16:41:39;;;;;;;5.73;3.40;;;;;;;;;;5031610;28;20446;-79
2021/09/29 16:44:07;;;;;;;6.27;2.60;;;;;;;;;;5030064;28;20481;-77
2021/09/29 16:46:35;;;;;;;5.23;2.40;;;;;;;;;;5030720;28;20843;-83
2021/09/29 16:49:03;;;;;;;3.70;2.07;;;;;;;;;;5020025;28;20453;-80
2021/09/29 16:51:34;;;;;;;4.10;1.67;;;;;;;;;;5030479;28;20548;-80
2021/09/29 16:54:05;;;;;;;2.60;1.63;;;;;;;;;;5023212;28;20444;-79
2021/09/29 16:56:34;;;;;;;4.77;1.80;;;;;;;;;;4994497;28;20476;-82
2021/09/29 16:59:05;;;;;;;2.77;1.80;;;;;;;;;;5011924;28;20462;-80
2021/09/29 17:01:32;;;;;;;2.07;1.60;;;;;;;;;;5022267;28;20457;-81
2021/09/29 17:04:00;;;;;;;2.60;1.40;;;;;;;;;;5021951;28;20456;-80
2021/09/29 17:06:33;;;;;;;3.67;1.60;;;;;;;;;;5030792;28;20814;-82
2021/09/29 17:09:01;;;;;;;2.40;1.43;;;;;;;;;;5020766;28;20471;-82
2021/09/29 17:11:29;;;;;;;3.27;1.40;;;;;;;;;;5006418;28;20458;-79
2021/09/29 17:13:56;;;;;;;6.93;1.73;;;;;;;;;;5015832;28;20459;-82
2021/09/29 17:16:29;;;;;;;3.00;1.80;;;;;;;;;;5017863;28;20456;-80
2021/09/29 17:18:59;;;;;;;3.60;1.60;;;;;;;;;;5013512;28;20781;-81
2021/09/29 17:21:28;;;;;;;2.43;1.50;;;;;;;;;;5010816;28;20730;-80
2021/09/29 17:23:57;;;;;;;3.93;1.80;;;;;;;;;;5017011;28;20900;-78
2021/09/29 17:26:24;;;;;;;3.57;1.53;;;;;;;;;;5014045;28;20452;-83
2021/09/29 17:28:54;;;;;;;2.90;1.40;;;;;;;;;;5018735;28;20538;-78
2021/09/29 17:31:27;;;;;;;3.40;1.77;;;;;;;;;;4988841;28;1141252;-76
2021/09/29 17:34:06;;;;;;;4.63;1.60;;;;;;;;;;5031051;28;20775;-77
2021/09/29 17:36:50;;;;;;;3.07;1.77;;;;;;;;;;5020844;28;20462;-76